Wednesday, April 25, 2018, 12:55 AM GMT
Back to Local

CYHU, Saint Hubert Airport

Location: , , Canada Lat: 45.517
Local Time: 12:55 AM GMT ( 0:55 GMT) Lon: -73.417
Time Zone: GMT Elev: 88 ft

Show me the last for .
Show Decoded

2018-04-25 00:00 METAR CYHU 250000Z AUTO 19009KT 9SM BKN150 BKN170 OVC200 18/M00 A3007 RMK SLP184
                 DENSITY ALT 300FT =
2018-04-24 23:00 METAR CYHU 242300Z AUTO 20010KT 9SM FEW160 BKN200 20/M01 A3007 RMK SLP183
                 DENSITY ALT 500FT =
2018-04-24 22:00 METAR CYHU 242200Z AUTO 20011G20KT 160V230 9SM SCT170 BKN200 21/01 A3008 RMK
                 SLP187 DENSITY ALT 600FT =
2018-04-24 21:00 METAR CYHU 242100Z AUTO 22009G15KT 180V260 9SM BKN180 OVC200 21/04 A3009 RMK
                 SLP190 DENSITY ALT 600FT =
2018-04-24 20:00 METAR CYHU 242000Z AUTO 23009G15KT 9SM OVC200 22/04 A3009 RMK SLP192 DENSITY ALT
                 700FT =
2018-04-24 19:00 METAR CYHU 241900Z AUTO 26013G18KT 9SM BKN230 22/05 A3012 RMK SLP200 DENSITY ALT
                 600FT =
2018-04-24 18:00 METAR CYHU 241800Z AUTO 25012G18KT 9SM CLR 21/05 A3014 RMK SLP209 DENSITY ALT
                 500FT =
2018-04-24 17:00 METAR CYHU 241700Z AUTO 22010G19KT 9SM FEW230 21/04 A3016 RMK SLP215 DENSITY ALT
                 500FT =
2018-04-24 16:00 METAR CYHU 241600Z AUTO 24012KT 9SM BKN220 19/04 A3019 RMK SLP225 DENSITY ALT
                 300FT =
2018-04-24 15:00 METAR CYHU 241500Z AUTO 23008KT 170V250 9SM CLR 18/03 A3022 RMK SLP234 DENSITY
                 ALT 100FT =
2018-04-24 14:00 METAR CYHU 241400Z AUTO 19007KT 9SM CLR 16/01 A3024 RMK SLP241 =
2018-04-24 13:00 METAR CYHU 241300Z AUTO 18007KT 9SM CLR 13/00 A3024 RMK SLP243 =
2018-04-24 12:00 METAR CYHU 241200Z AUTO 17008KT 9SM CLR 10/M01 A3025 RMK SLP244 =
2018-04-24 11:00 METAR CYHU 241100Z AUTO 16006KT 9SM CLR 08/M01 A3024 RMK SLP241 =
2018-04-24 10:00 METAR CYHU 241000Z AUTO 18005KT 9SM CLR 06/M03 A3023 RMK SLP239 =
2018-04-24 09:00 METAR CYHU 240900Z AUTO 17002KT 9SM CLR 05/M04 A3023 RMK SLP238 =
2018-04-24 08:00 METAR CYHU 240800Z AUTO 00000KT 9SM CLR 06/M05 A3024 RMK SLP241 =
2018-04-24 07:00 METAR CYHU 240700Z AUTO 14006KT 9SM CLR 04/M04 A3023 RMK SLP238 =
2018-04-24 06:00 METAR CYHU 240600Z AUTO 00000KT 9SM CLR 04/M04 A3024 RMK SLP242 =
2018-04-24 05:00 METAR CYHU 240500Z AUTO 17004KT 9SM CLR 06/M05 A3024 RMK SLP242 =
2018-04-24 04:00 METAR CYHU 240400Z AUTO 14005KT 9SM CLR 07/M05 A3024 RMK SLP243 =
2018-04-24 03:00 METAR CYHU 240300Z AUTO 14002KT 9SM CLR 09/M06 A3025 RMK SLP247 =
2018-04-24 02:00 METAR CYHU 240200Z AUTO 00000KT 9SM CLR 10/M05 A3027 RMK SLP254 =
2018-04-24 01:00 METAR CYHU 240100Z AUTO 14002KT 9SM CLR 13/M07 A3028 RMK SLP255 =

Support USWX by starting your Amazon purchase here.